Time;durP1;ratioP1;P1;durP2;ratioP2;P2;SDS_P1;SDS_P2;PMS_P1;PMS_P2;Temp;Humidity;BMP_temperature;BMP_pressure;BME280_temperature;BME280_humidity;BME280_pressure;Samples;Min_cycle;Max_cycle;Signal;HPM_P1;HPM_P2
2021/07/30 00:01:21;;;;;;;4.03;1.35;;;17.60;66.00;;;;;;4989762;28;20026;-68
2021/07/30 00:03:47;;;;;;;4.50;1.63;;;17.50;66.00;;;;;;4989878;28;20037;-68
2021/07/30 00:06:12;;;;;;;5.30;1.75;;;17.50;66.20;;;;;;4988388;28;20026;-71
2021/07/30 00:08:37;;;;;;;4.10;1.70;;;17.50;66.40;;;;;;4988465;28;20027;-68
2021/07/30 00:11:03;;;;;;;5.45;1.38;;;17.50;66.40;;;;;;4989568;28;20041;-68
2021/07/30 00:13:28;;;;;;;5.65;2.20;;;17.40;66.50;;;;;;5004605;28;20034;-68
2021/07/30 00:15:55;;;;;;;2.47;1.75;;;17.40;66.80;;;;;;4991525;28;20014;-68
2021/07/30 00:18:20;;;;;;;8.32;1.98;;;17.40;66.80;;;;;;4991450;28;20397;-68
2021/07/30 00:20:45;;;;;;;6.93;1.98;;;17.30;66.70;;;;;;4993513;28;20035;-68
2021/07/30 00:23:11;;;;;;;2.90;1.45;;;17.30;66.90;;;;;;4991602;28;20064;-68
2021/07/30 00:25:36;;;;;;;4.53;1.77;;;17.20;67.60;;;;;;4993333;28;20050;-68
2021/07/30 00:28:02;;;;;;;3.38;1.65;;;17.20;67.30;;;;;;4992965;28;20164;-68
2021/07/30 00:30:28;;;;;;;6.20;1.90;;;17.20;67.40;;;;;;4992923;28;20038;-68
2021/07/30 00:32:53;;;;;;;5.65;1.80;;;17.10;67.60;;;;;;4992634;28;20453;-68
2021/07/30 00:35:19;;;;;;;6.80;1.85;;;17.10;67.70;;;;;;4993042;28;20031;-69
2021/07/30 00:37:44;;;;;;;6.00;1.65;;;17.10;67.80;;;;;;4993307;28;20092;-68
2021/07/30 00:40:10;;;;;;;7.05;1.63;;;17.10;68.00;;;;;;4991190;28;20035;-68
2021/07/30 00:42:36;;;;;;;6.93;1.60;;;17.10;68.10;;;;;;5008059;28;20037;-68
2021/07/30 00:45:02;;;;;;;3.35;1.73;;;17.00;68.00;;;;;;5007695;28;20061;-68
2021/07/30 00:47:30;;;;;;;7.38;2.42;;;17.00;68.10;;;;;;4992650;28;20187;-68
2021/07/30 00:49:57;;;;;;;3.92;1.85;;;17.00;68.20;;;;;;4992405;28;20524;-68
2021/07/30 00:52:25;;;;;;;8.57;2.35;;;16.90;68.60;;;;;;4992744;28;20041;-68
2021/07/30 00:54:51;;;;;;;9.13;1.90;;;16.90;68.80;;;;;;4991033;28;20381;-68
2021/07/30 00:57:17;;;;;;;9.45;2.05;;;16.90;69.00;;;;;;4992431;28;20031;-69
2021/07/30 00:59:43;;;;;;;3.53;1.63;;;16.90;68.80;;;;;;4992245;28;20105;-68
2021/07/30 01:02:09;;;;;;;5.95;1.75;;;16.90;68.90;;;;;;4992525;28;20489;-68
2021/07/30 01:04:34;;;;;;;4.25;1.65;;;16.90;69.50;;;;;;4992340;28;20062;-68
2021/07/30 01:07:00;;;;;;;3.78;1.70;;;16.90;69.80;;;;;;4992549;28;20077;-68
2021/07/30 01:09:25;;;;;;;5.90;1.70;;;16.90;69.80;;;;;;4990506;28;20030;-68
2021/07/30 01:11:51;;;;;;;3.67;1.85;;;16.90;69.30;;;;;;4991561;28;20022;-68
2021/07/30 01:14:16;;;;;;;3.45;1.80;;;16.90;69.40;;;;;;4992204;28;20034;-68
2021/07/30 01:16:42;;;;;;;3.00;1.50;;;16.80;69.50;;;;;;4992594;28;20040;-69
2021/07/30 01:19:22;;;;;;;7.90;1.92;;;16.80;69.60;;;;;;4991510;28;20042;-69
2021/07/30 01:21:49;;;;;;;2.55;1.38;;;16.80;69.70;;;;;;4992078;28;20038;-69
2021/07/30 01:24:16;;;;;;;7.72;1.73;;;16.80;69.70;;;;;;5007081;28;20421;-69
2021/07/30 01:26:41;;;;;;;3.33;1.45;;;16.80;69.90;;;;;;4991304;28;20110;-69
2021/07/30 01:29:07;;;;;;;6.65;1.65;;;16.80;70.00;;;;;;4990059;28;20113;-69
2021/07/30 01:31:32;;;;;;;4.68;1.92;;;16.80;70.10;;;;;;4990630;28;20038;-69
2021/07/30 01:33:58;;;;;;;3.63;2.20;;;16.80;70.10;;;;;;4991907;28;20041;-69
2021/07/30 01:36:23;;;;;;;5.25;1.95;;;16.70;70.10;;;;;;4991860;28;20519;-69
2021/07/30 01:38:49;;;;;;;3.83;1.40;;;16.70;70.30;;;;;;4991225;28;20068;-69
2021/07/30 01:41:15;;;;;;;3.80;1.02;;;16.70;70.30;;;;;;4991817;28;20033;-69
2021/07/30 01:43:42;;;;;;;3.42;1.40;;;16.60;70.50;;;;;;4988865;28;20355;-69
2021/07/30 01:46:08;;;;;;;2.95;1.77;;;16.60;70.80;;;;;;4991413;28;20081;-70
2021/07/30 01:48:34;;;;;;;5.65;1.30;;;16.60;70.60;;;;;;4991250;28;20038;-69
2021/07/30 01:51:00;;;;;;;3.58;1.60;;;16.60;70.80;;;;;;4991318;28;20026;-69
2021/07/30 01:53:26;;;;;;;4.40;1.65;;;16.60;70.80;;;;;;4991331;28;20037;-69
2021/07/30 01:55:51;;;;;;;7.78;2.10;;;16.60;70.80;;;;;;4991370;28;20023;-69
2021/07/30 01:58:17;;;;;;;8.40;1.90;;;16.60;71.10;;;;;;5005475;28;20034;-69
2021/07/30 02:00:42;;;;;;;3.85;1.92;;;16.60;71.10;;;;;;4990234;28;20122;-69
2021/07/30 02:03:08;;;;;;;4.93;3.33;;;16.60;71.00;;;;;;4990309;28;20671;-69
2021/07/30 02:05:37;;;;;;;5.00;2.80;;;16.50;71.10;;;;;;4991234;28;20041;-69
2021/07/30 02:08:03;;;;;;;7.03;2.95;;;16.50;71.40;;;;;;4991144;28;20023;-70
2021/07/30 02:10:29;;;;;;;7.00;3.10;;;16.50;71.40;;;;;;4990999;28;20503;-70
2021/07/30 02:15:38;;;;;;;4.57;2.90;;;16.40;71.70;;;;;;4990236;28;20041;-69
2021/07/30 02:18:04;;;;;;;5.63;2.05;;;16.40;71.80;;;;;;4989632;28;20480;-70
2021/07/30 02:20:29;;;;;;;2.67;1.60;;;16.40;72.20;;;;;;4990808;28;20049;-69
2021/07/30 02:22:55;;;;;;;5.93;2.22;;;16.40;72.00;;;;;;4991014;28;20030;-69
2021/07/30 02:25:20;;;;;;;8.48;2.28;;;16.40;72.20;;;;;;4990784;28;20045;-69
2021/07/30 02:27:46;;;;;;;7.90;2.63;;;16.30;72.10;;;;;;4991173;28;20030;-69
2021/07/30 02:30:11;;;;;;;8.30;1.67;;;16.30;72.20;;;;;;4990565;28;20033;-69
2021/07/30 02:32:37;;;;;;;4.18;1.95;;;16.30;72.30;;;;;;5005977;28;20034;-69
2021/07/30 02:35:03;;;;;;;6.53;1.77;;;16.30;72.50;;;;;;4988557;28;20022;-69
2021/07/30 02:37:28;;;;;;;5.07;2.10;;;16.30;72.70;;;;;;4989351;28;20034;-70
2021/07/30 02:39:54;;;;;;;4.63;1.88;;;16.20;72.70;;;;;;4988319;28;20030;-69
2021/07/30 02:42:19;;;;;;;8.18;3.63;;;16.20;72.90;;;;;;4990140;28;20413;-69
2021/07/30 02:44:45;;;;;;;4.47;2.58;;;16.20;73.10;;;;;;4990357;28;20042;-69
2021/07/30 02:47:10;;;;;;;;;;;16.10;73.30;;;;;;4991028;28;20401;-69
2021/07/30 02:49:36;;;;;;;4.78;2.17;;;16.10;73.50;;;;;;4988687;28;19917;-69
2021/07/30 02:52:01;;;;;;;5.93;2.00;;;16.00;73.40;;;;;;4990483;28;20033;-69
2021/07/30 02:54:27;;;;;;;6.43;2.55;;;16.00;73.70;;;;;;4990526;28;20504;-69
2021/07/30 02:56:52;;;;;;;5.10;2.40;;;15.90;74.00;;;;;;5005088;28;20037;-69
2021/07/30 02:59:17;;;;;;;9.05;2.75;;;15.90;74.10;;;;;;4988277;28;20041;-70
2021/07/30 03:01:43;;;;;;;7.30;1.95;;;15.90;74.50;;;;;;4990268;28;20436;-69
2021/07/30 03:04:08;;;;;;;3.90;2.08;;;15.80;74.60;;;;;;4990367;28;20034;-69
2021/07/30 03:06:34;;;;;;;4.18;1.88;;;15.80;74.80;;;;;;4990055;28;20081;-69
2021/07/30 03:08:59;;;;;;;9.60;2.67;;;15.80;75.40;;;;;;4987053;28;20462;-69
2021/07/30 03:11:25;;;;;;;5.65;2.38;;;15.80;75.20;;;;;;4989972;28;20058;-69
2021/07/30 03:13:50;;;;;;;4.22;2.47;;;15.80;75.20;;;;;;4989811;28;20072;-69
2021/07/30 03:16:16;;;;;;;4.00;1.90;;;15.70;75.30;;;;;;4989828;28;20434;-69
2021/07/30 03:18:44;;;;;;;5.97;2.50;;;15.70;75.60;;;;;;4989905;28;20037;-69
2021/07/30 03:21:09;;;;;;;7.25;2.45;;;15.70;75.70;;;;;;4990026;28;20030;-69
2021/07/30 03:23:35;;;;;;;5.07;2.85;;;15.60;75.90;;;;;;4988666;28;20077;-69
2021/07/30 03:26:00;;;;;;;;;;;15.60;75.50;;;;;;4989527;28;20108;-69
2021/07/30 03:28:26;;;;;;;4.53;1.98;;;15.60;76.10;;;;;;5004212;28;19910;-69
2021/07/30 03:30:51;;;;;;;5.72;2.17;;;15.60;76.30;;;;;;4990165;28;20030;-69
2021/07/30 03:33:17;;;;;;;8.63;2.03;;;15.50;76.10;;;;;;4988843;28;20445;-69
2021/07/30 03:35:42;;;;;;;12.23;2.75;;;15.50;76.50;;;;;;4989937;28;20022;-69
2021/07/30 03:38:08;;;;;;;6.40;2.53;;;15.50;77.00;;;;;;4988810;28;20057;-69
2021/07/30 03:40:34;;;;;;;7.85;2.20;;;15.50;76.70;;;;;;4989236;28;20038;-69
2021/07/30 03:42:59;;;;;;;3.28;2.20;;;15.40;76.80;;;;;;4988143;28;20030;-69
2021/07/30 03:45:25;;;;;;;4.63;2.33;;;15.40;77.20;;;;;;5004751;28;20089;-69
2021/07/30 03:47:51;;;;;;;11.65;2.35;;;15.40;77.30;;;;;;4988786;28;20117;-69
2021/07/30 03:50:17;;;;;;;6.65;3.17;;;15.40;77.50;;;;;;4990071;28;20114;-69
2021/07/30 03:52:42;;;;;;;8.75;2.50;;;15.40;77.80;;;;;;4993521;28;20452;-69
2021/07/30 03:55:09;;;;;;;5.75;2.45;;;15.50;77.50;;;;;;4993568;28;20061;-69
2021/07/30 03:57:35;;;;;;;6.15;2.40;;;15.40;77.30;;;;;;4993181;28;20034;-69
2021/07/30 04:00:00;;;;;;;8.93;2.38;;;15.50;77.70;;;;;;4993139;28;20169;-70
2021/07/30 04:02:25;;;;;;;6.80;2.20;;;15.50;77.70;;;;;;4992205;28;20038;-70
2021/07/30 04:04:51;;;;;;;4.40;2.70;;;15.50;77.90;;;;;;4993500;28;20058;-70
2021/07/30 04:07:17;;;;;;;4.40;2.30;;;15.50;77.70;;;;;;4993317;28;20510;-70
2021/07/30 04:09:42;;;;;;;3.95;1.65;;;15.70;77.70;;;;;;4992740;28;20065;-70
2021/07/30 04:12:08;;;;;;;7.60;2.70;;;15.70;77.80;;;;;;4993586;28;20100;-70
2021/07/30 04:14:34;;;;;;;4.82;2.00;;;15.80;77.80;;;;;;4993390;28;20026;-70
2021/07/30 04:16:59;;;;;;;5.38;1.85;;;15.90;77.60;;;;;;4993022;28;20050;-70
2021/07/30 04:19:25;;;;;;;8.77;2.75;;;16.00;77.50;;;;;;4991251;28;20069;-70
2021/07/30 04:21:51;;;;;;;3.67;1.80;;;16.20;77.10;;;;;;4989570;28;20049;-70
2021/07/30 04:24:17;;;;;;;;;;;16.30;76.80;;;;;;5008726;28;20109;-70
2021/07/30 04:26:42;;;;;;;7.95;2.60;;;16.40;76.50;;;;;;4991652;28;19925;-69
2021/07/30 04:29:08;;;;;;;5.30;2.22;;;16.60;76.50;;;;;;5007762;28;20486;-70
2021/07/30 04:31:38;;;;;;;6.78;2.70;;;16.70;76.20;;;;;;4991361;28;20034;-69
2021/07/30 04:34:05;;;;;;;7.38;1.80;;;16.80;75.80;;;;;;4992287;28;20026;-69
2021/07/30 04:36:30;;;;;;;9.10;3.28;;;17.00;75.40;;;;;;4991569;28;20034;-69
2021/07/30 04:38:58;;;;;;;6.93;2.95;;;17.20;75.10;;;;;;4990450;28;20440;-70
2021/07/30 04:41:23;;;;;;;6.65;2.85;;;17.30;74.70;;;;;;4993011;28;20131;-70
2021/07/30 04:43:49;;;;;;;4.50;2.05;;;17.50;74.10;;;;;;4992661;28;20036;-69
2021/07/30 04:46:16;;;;;;;7.60;2.53;;;17.70;73.80;;;;;;4992241;28;20113;-70
2021/07/30 04:48:42;;;;;;;10.68;2.55;;;17.80;73.30;;;;;;4990758;28;20489;-70
2021/07/30 04:51:08;;;;;;;7.68;3.10;;;18.00;73.20;;;;;;4990774;28;20527;-70
2021/07/30 04:53:33;;;;;;;4.35;3.83;;;18.20;72.50;;;;;;4990890;28;20034;-70
2021/07/30 04:55:59;;;;;;;8.07;4.03;;;18.40;72.10;;;;;;4990338;28;20027;-70
2021/07/30 04:58:24;;;;;;;6.05;3.72;;;18.50;72.10;;;;;;4989411;28;20393;-70
2021/07/30 05:00:50;;;;;;;3.55;2.53;;;18.70;71.30;;;;;;4989685;28;20042;-69
2021/07/30 05:03:15;;;;;;;9.25;4.93;;;18.80;70.80;;;;;;4992602;28;20041;-69
2021/07/30 05:05:41;;;;;;;6.35;2.85;;;19.00;70.60;;;;;;4989519;28;20447;-70
2021/07/30 05:08:06;;;;;;;5.28;3.20;;;19.00;70.00;;;;;;4991283;28;20512;-70
2021/07/30 05:10:32;;;;;;;6.05;2.28;;;19.20;69.20;;;;;;4992709;28;20022;-70
2021/07/30 05:12:57;;;;;;;10.00;3.00;;;19.20;68.60;;;;;;4992425;28;20022;-70
2021/07/30 05:15:23;;;;;;;6.65;1.50;;;19.30;68.80;;;;;;5006840;28;20033;-70
2021/07/30 05:17:48;;;;;;;3.97;1.88;;;19.40;67.80;;;;;;4991490;28;20081;-69
2021/07/30 05:20:14;;;;;;;10.00;3.55;;;19.40;68.30;;;;;;4992917;28;20542;-70
2021/07/30 05:22:39;;;;;;;4.13;1.80;;;19.60;67.50;;;;;;4991921;28;20049;-70
2021/07/30 05:25:05;;;;;;;7.10;2.28;;;19.70;67.20;;;;;;4991371;28;20105;-70
2021/07/30 05:27:31;;;;;;;3.65;1.85;;;19.80;67.20;;;;;;4991423;28;20283;-70
2021/07/30 05:30:00;;;;;;;3.83;1.42;;;19.90;66.60;;;;;;4990817;28;20101;-70
2021/07/30 05:32:25;;;;;;;5.68;1.92;;;20.10;66.20;;;;;;4988701;28;20278;-70
2021/07/30 05:34:51;;;;;;;3.30;2.03;;;20.20;66.10;;;;;;4992786;28;20026;-70
2021/07/30 05:37:16;;;;;;;4.40;1.63;;;20.30;65.50;;;;;;4990599;28;20445;-70
2021/07/30 05:39:42;;;;;;;3.10;2.10;;;20.40;65.60;;;;;;4991721;28;20404;-70
2021/07/30 05:42:07;;;;;;;5.10;3.17;;;20.40;65.00;;;;;;4991267;28;20042;-70
2021/07/30 05:44:33;;;;;;;7.18;2.60;;;20.40;65.30;;;;;;4993422;28;20053;-70
2021/07/30 05:46:59;;;;;;;15.25;9.30;;;20.30;65.20;;;;;;4991137;28;20382;-70
2021/07/30 05:49:24;;;;;;;14.98;6.82;;;20.20;65.30;;;;;;5006969;28;20027;-70
2021/07/30 05:51:49;;;;;;;12.60;4.78;;;20.20;65.60;;;;;;5006129;28;20117;-70
2021/07/30 05:54:15;;;;;;;10.43;5.60;;;20.10;65.50;;;;;;5007508;28;20121;-70
2021/07/30 05:56:40;;;;;;;11.27;4.95;;;20.00;66.00;;;;;;4989024;28;20030;-70
2021/07/30 05:59:06;;;;;;;13.93;7.50;;;20.10;66.20;;;;;;4991348;28;20023;-70
2021/07/30 06:01:31;;;;;;;9.40;4.90;;;20.20;65.60;;;;;;4991765;28;20093;-70
2021/07/30 06:03:57;;;;;;;5.07;3.42;;;20.30;65.80;;;;;;4992195;28;20081;-70
2021/07/30 06:06:22;;;;;;;10.60;5.68;;;20.30;65.50;;;;;;4990635;28;20387;-70
2021/07/30 06:08:48;;;;;;;5.88;3.50;;;20.20;65.60;;;;;;4991469;28;20027;-70
2021/07/30 06:11:13;;;;;;;9.55;4.15;;;20.20;65.80;;;;;;4990158;28;20026;-70
2021/07/30 06:13:39;;;;;;;4.60;3.33;;;20.20;65.50;;;;;;4987650;28;20030;-70
2021/07/30 06:16:11;;;;;;;7.40;2.65;;;20.30;65.60;;;;;;4992151;28;20397;-70
2021/07/30 06:18:38;;;;;;;6.28;3.17;;;20.30;65.60;;;;;;4990454;28;20414;-70
2021/07/30 06:21:05;;;;;;;8.63;3.40;;;20.40;65.50;;;;;;4992281;28;20528;-70
2021/07/30 06:23:30;;;;;;;6.18;2.55;;;20.60;65.20;;;;;;5004953;28;20042;-69
2021/07/30 06:25:56;;;;;;;5.72;1.90;;;20.70;65.00;;;;;;4988973;28;20037;-70
2021/07/30 06:28:21;;;;;;;5.93;2.53;;;20.70;64.70;;;;;;4986646;28;20076;-71
2021/07/30 06:30:47;;;;;;;9.77;2.97;;;20.80;64.50;;;;;;4991869;28;20397;-70
2021/07/30 06:33:12;;;;;;;6.57;2.65;;;20.80;64.50;;;;;;4991601;28;20073;-70
2021/07/30 06:35:38;;;;;;;7.97;2.63;;;21.00;64.30;;;;;;4991948;28;20034;-70
2021/07/30 06:38:03;;;;;;;5.45;2.45;;;21.00;63.70;;;;;;4989452;28;20029;-71
2021/07/30 06:40:29;;;;;;;9.38;2.60;;;21.00;63.40;;;;;;4990825;28;20039;-70
2021/07/30 06:42:55;;;;;;;6.03;2.28;;;21.00;63.50;;;;;;4990234;28;20026;-71
2021/07/30 06:45:20;;;;;;;7.32;3.13;;;20.90;63.70;;;;;;4989056;28;20034;-70
2021/07/30 06:47:46;;;;;;;6.97;2.00;;;20.90;62.90;;;;;;5003113;28;20133;-71
2021/07/30 06:50:11;;;;;;;5.07;2.25;;;20.80;62.40;;;;;;4988028;28;20031;-70
2021/07/30 06:52:37;;;;;;;7.00;2.08;;;20.70;62.60;;;;;;4988822;28;20646;-70
2021/07/30 06:55:03;;;;;;;9.40;2.95;;;20.70;62.90;;;;;;4988512;28;20023;-71
2021/07/30 06:57:29;;;;;;;15.18;6.95;;;20.80;62.40;;;;;;4989697;28;20396;-70
2021/07/30 06:59:54;;;;;;;19.58;6.68;;;20.80;62.20;;;;;;4988655;28;20026;-70
2021/07/30 07:02:20;;;;;;;17.40;7.28;;;20.80;62.20;;;;;;4987184;28;20088;-69
2021/07/30 07:04:45;;;;;;;11.00;6.13;;;20.80;62.10;;;;;;4989563;28;20034;-70
2021/07/30 07:07:11;;;;;;;10.07;4.95;;;20.80;61.90;;;;;;4989171;28;20040;-70
2021/07/30 07:09:37;;;;;;;6.93;3.30;;;20.80;61.90;;;;;;4984594;28;20038;-70
2021/07/30 07:12:02;;;;;;;6.95;2.72;;;20.80;61.50;;;;;;4988361;28;20030;-70
2021/07/30 07:14:31;;;;;;;6.53;2.72;;;20.80;61.90;;;;;;4988479;28;20031;-70
2021/07/30 07:16:57;;;;;;;5.25;2.08;;;20.80;62.00;;;;;;4988304;28;20037;-70
2021/07/30 07:19:23;;;;;;;5.80;1.77;;;20.90;61.80;;;;;;4985205;28;20039;-70
2021/07/30 07:21:50;;;;;;;5.78;1.88;;;21.10;61.90;;;;;;4988927;28;20030;-70
2021/07/30 07:24:16;;;;;;;5.40;1.88;;;21.10;61.40;;;;;;4987750;28;20026;-71
2021/07/30 07:26:42;;;;;;;10.68;2.50;;;21.10;61.80;;;;;;4985745;28;20034;-72
2021/07/30 07:29:07;;;;;;;6.75;2.08;;;21.20;61.90;;;;;;4988480;28;20455;-70
2021/07/30 07:31:33;;;;;;;7.15;3.13;;;21.20;61.40;;;;;;4987774;28;20405;-71
2021/07/30 07:33:58;;;;;;;5.60;1.92;;;21.20;61.80;;;;;;4988887;28;20053;-71
2021/07/30 07:36:24;;;;;;;4.13;2.30;;;21.20;61.80;;;;;;4987565;28;20026;-71
2021/07/30 07:38:50;;;;;;;5.97;2.10;;;21.20;62.00;;;;;;4988355;28;20381;-70
2021/07/30 07:41:15;;;;;;;7.97;2.45;;;21.20;61.00;;;;;;4988841;28;20093;-71
2021/07/30 07:43:41;;;;;;;3.80;2.00;;;21.20;61.60;;;;;;4988518;28;20120;-71
2021/07/30 07:46:06;;;;;;;6.97;1.83;;;21.20;61.10;;;;;;4989249;28;20088;-71
2021/07/30 07:48:32;;;;;;;7.75;2.42;;;21.30;61.10;;;;;;4989183;28;20535;-71
2021/07/30 07:50:58;;;;;;;6.80;2.40;;;21.40;61.10;;;;;;4987983;28;20026;-71
2021/07/30 07:53:23;;;;;;;9.70;2.45;;;21.40;60.90;;;;;;4987477;28;20038;-71
2021/07/30 07:56:08;;;;;;;4.50;2.03;;;21.50;61.10;;;;;;4988511;28;20050;-72
2021/07/30 07:58:34;;;;;;;5.53;2.30;;;21.50;61.10;;;;;;4986813;28;20026;-72
2021/07/30 08:01:00;;;;;;;5.72;2.35;;;21.70;61.00;;;;;;4988306;28;20045;-70
2021/07/30 08:03:26;;;;;;;5.53;2.50;;;21.70;60.60;;;;;;5001661;28;20498;-70
2021/07/30 08:05:52;;;;;;;8.27;2.53;;;21.80;60.60;;;;;;4989800;28;20030;-70
2021/07/30 08:08:17;;;;;;;6.40;2.58;;;21.90;60.30;;;;;;4987519;28;20401;-70
2021/07/30 08:10:43;;;;;;;4.75;2.00;;;22.00;60.40;;;;;;4988981;28;20023;-71
2021/07/30 08:13:10;;;;;;;5.95;2.33;;;22.10;60.20;;;;;;4986407;28;20037;-70
2021/07/30 08:15:38;;;;;;;4.45;2.53;;;22.20;60.20;;;;;;4987731;28;20034;-69
2021/07/30 08:18:03;;;;;;;6.60;2.20;;;22.30;59.50;;;;;;4988179;28;20038;-72
2021/07/30 08:20:29;;;;;;;3.38;2.08;;;22.50;59.80;;;;;;4988434;28;20041;-71
2021/07/30 08:22:54;;;;;;;5.82;2.45;;;22.50;59.00;;;;;;4986836;28;20042;-72
2021/07/30 08:25:20;;;;;;;6.05;2.33;;;22.40;59.40;;;;;;4989618;28;20026;-72
2021/07/30 08:27:45;;;;;;;6.50;2.15;;;22.50;59.60;;;;;;4987264;28;20072;-72
2021/07/30 08:30:11;;;;;;;6.70;2.63;;;22.60;59.00;;;;;;4987714;28;20060;-72
2021/07/30 08:32:36;;;;;;;6.05;2.00;;;22.70;59.40;;;;;;4988564;28;20054;-70
2021/07/30 08:35:02;;;;;;;9.70;2.65;;;22.80;58.50;;;;;;4987696;28;20113;-71
2021/07/30 08:37:28;;;;;;;5.43;1.88;;;22.90;58.60;;;;;;4991241;28;20030;-70
2021/07/30 08:39:53;;;;;;;5.07;2.88;;;23.10;58.60;;;;;;4991116;28;20027;-72
2021/07/30 08:42:19;;;;;;;7.43;2.83;;;23.30;58.30;;;;;;4990373;28;20040;-71
2021/07/30 08:44:45;;;;;;;7.53;2.50;;;23.30;57.90;;;;;;4990710;28;20142;-71
2021/07/30 08:47:12;;;;;;;6.93;2.58;;;23.30;57.20;;;;;;4992364;28;20046;-71
2021/07/30 08:49:38;;;;;;;7.22;2.95;;;23.40;57.40;;;;;;4991945;28;20074;-72
2021/07/30 08:52:11;;;;;;;5.78;2.45;;;23.40;56.90;;;;;;4992900;28;20023;-72
2021/07/30 08:54:38;;;;;;;5.85;2.55;;;23.40;56.10;;;;;;4991242;28;20451;-72
2021/07/30 08:57:11;;;;;;;7.50;2.25;;;23.30;56.10;;;;;;4991108;28;20032;-72
2021/07/30 08:59:40;;;;;;;18.70;3.70;;;23.20;56.80;;;;;;4990671;28;20040;-72
2021/07/30 09:02:07;;;;;;;26.00;4.30;;;23.30;56.70;;;;;;4992464;28;20033;-72
2021/07/30 09:04:33;;;;;;;8.48;2.70;;;23.40;56.00;;;;;;4988227;28;20030;-70
2021/07/30 09:07:02;;;;;;;5.47;2.45;;;23.50;55.80;;;;;;4991512;28;20022;-71
2021/07/30 09:09:31;;;;;;;10.15;2.60;;;23.40;56.10;;;;;;4989151;28;20034;-71
2021/07/30 09:11:58;;;;;;;7.10;2.83;;;23.60;56.30;;;;;;4991123;28;20031;-70
2021/07/30 09:14:38;;;;;;;8.55;2.55;;;23.70;56.40;;;;;;4986069;28;20080;-70
2021/07/30 09:17:05;;;;;;;9.25;1.90;;;23.70;55.90;;;;;;4990462;28;20121;-71
2021/07/30 09:19:30;;;;;;;3.75;1.60;;;23.70;56.10;;;;;;4990342;28;20158;-71
2021/07/30 09:22:10;;;;;;;11.32;2.17;;;23.80;55.60;;;;;;4989870;28;20497;-70
2021/07/30 09:24:41;;;;;;;9.90;2.67;;;23.80;55.80;;;;;;4990467;28;20035;-72
2021/07/30 09:27:12;;;;;;;13.27;2.78;;;23.70;55.80;;;;;;4988464;28;20033;-72
2021/07/30 09:29:39;;;;;;;2.67;1.95;;;23.80;56.10;;;;;;4989749;28;20046;-70
2021/07/30 09:32:08;;;;;;;6.30;2.22;;;23.90;55.60;;;;;;4989168;28;20030;-72
2021/07/30 09:34:40;;;;;;;7.75;1.90;;;24.10;56.30;;;;;;5003947;28;20200;-72
2021/07/30 09:37:11;;;;;;;2.85;1.40;;;24.30;55.70;;;;;;4990039;28;20026;-71
2021/07/30 09:39:41;;;;;;;4.18;1.83;;;24.40;54.90;;;;;;4991135;28;20027;-72
2021/07/30 09:42:08;;;;;;;6.05;1.73;;;24.40;55.30;;;;;;4991316;28;20042;-72
2021/07/30 09:44:44;;;;;;;2.70;1.58;;;24.30;54.60;;;;;;4989171;28;20034;-71
2021/07/30 09:47:11;;;;;;;;;;;24.30;54.60;;;;;;4991707;28;20027;-71
2021/07/30 09:49:44;;;;;;;4.47;1.95;;;24.20;55.20;;;;;;4987230;28;19917;-71
2021/07/30 09:52:24;;;;;;;5.93;1.65;;;24.30;55.30;;;;;;4988940;28;20161;-71
2021/07/30 09:55:01;;;;;;;8.75;1.70;;;24.40;55.00;;;;;;4990387;28;20091;-71
2021/07/30 09:57:27;;;;;;;6.82;2.08;;;24.60;54.10;;;;;;4989325;28;20097;-71
2021/07/30 09:59:58;;;;;;;11.73;2.58;;;24.60;54.40;;;;;;4986308;28;20039;-72
2021/07/30 10:02:29;;;;;;;3.28;1.60;;;24.60;54.60;;;;;;4989117;28;20040;-71
2021/07/30 10:04:55;;;;;;;2.28;1.33;;;24.70;54.40;;;;;;4987349;28;20053;-72
2021/07/30 10:07:22;;;;;;;6.97;2.33;;;24.80;54.00;;;;;;4986783;28;20077;-72
2021/07/30 10:12:25;;;;;;;6.07;1.42;;;24.90;54.50;;;;;;4990074;28;20036;-74
2021/07/30 10:14:51;;;;;;;8.40;1.60;;;24.90;53.80;;;;;;4989949;28;20030;-74
2021/07/30 10:17:22;;;;;;;5.82;1.77;;;25.00;53.70;;;;;;5004403;28;20121;-74
2021/07/30 10:19:49;;;;;;;3.90;1.05;;;25.10;53.60;;;;;;4983752;28;20044;-71
2021/07/30 10:22:15;;;;;;;2.75;1.60;;;25.10;53.80;;;;;;4984253;28;20054;-71
2021/07/30 10:24:46;;;;;;;3.67;1.60;;;25.30;53.70;;;;;;4989632;28;20045;-71
2021/07/30 10:27:14;;;;;;;5.05;1.67;;;25.30;53.70;;;;;;4985905;28;20943;-72
2021/07/30 10:30:05;;;;;;;6.38;1.77;;;25.40;53.40;;;;;;4988618;28;20093;-72
2021/07/30 10:32:56;;;;;;;7.57;1.27;;;25.30;53.10;;;;;;4988725;28;20378;-72
2021/07/30 10:35:28;;;;;;;3.85;1.35;;;25.30;53.50;;;;;;5004388;28;20037;-73
2021/07/30 10:38:14;;;;;;;4.95;1.30;;;25.30;53.60;;;;;;5001083;28;20771;-72
2021/07/30 10:40:41;;;;;;;7.60;1.50;;;25.30;53.10;;;;;;4989304;28;20045;-71
2021/07/30 10:43:14;;;;;;;5.53;1.83;;;25.40;53.20;;;;;;4987948;28;20037;-72
2021/07/30 10:45:41;;;;;;;6.15;1.85;;;25.50;53.40;;;;;;4987964;28;20594;-72
2021/07/30 10:48:16;;;;;;;3.92;1.52;;;25.60;52.90;;;;;;5002132;28;20463;-71
2021/07/30 10:50:47;;;;;;;4.00;1.55;;;25.50;52.00;;;;;;4988119;28;20049;-71
2021/07/30 10:53:34;;;;;;;4.90;1.67;;;25.60;52.70;;;;;;4989342;28;20102;-71
2021/07/30 10:56:01;;;;;;;4.05;1.92;;;25.70;52.60;;;;;;4986463;28;20065;-71
2021/07/30 10:58:39;;;;;;;7.78;2.15;;;25.90;52.30;;;;;;4988576;28;20038;-73
2021/07/30 11:01:05;;;;;;;4.20;1.55;;;26.10;52.50;;;;;;4987052;28;20030;-73
2021/07/30 11:06:22;;;;;;;5.50;1.48;;;26.30;51.10;;;;;;4989818;28;20517;-73
2021/07/30 11:11:47;;;;;;;3.83;1.50;;;26.30;51.20;;;;;;4990063;28;20073;-73
2021/07/30 11:14:23;;;;;;;8.32;2.38;;;26.50;50.50;;;;;;4990122;28;20027;-73
2021/07/30 11:17:03;;;;;;;4.30;1.90;;;26.50;50.80;;;;;;5003328;28;20053;-73
2021/07/30 11:19:31;;;;;;;6.80;2.15;;;26.60;50.80;;;;;;4995749;28;20038;-73
2021/07/30 11:21:58;;;;;;;3.03;1.63;;;26.60;50.30;;;;;;4989186;28;20149;-73
2021/07/30 11:24:24;;;;;;;3.50;1.77;;;26.50;49.90;;;;;;4989555;28;20584;-73
2021/07/30 11:26:50;;;;;;;2.92;1.25;;;26.30;50.40;;;;;;4989787;28;20077;-73
2021/07/30 11:29:20;;;;;;;4.93;1.45;;;26.20;49.60;;;;;;4988238;28;20042;-73
2021/07/30 11:32:04;;;;;;;7.55;1.52;;;26.10;49.60;;;;;;4988427;28;20034;-73
2021/07/30 11:34:37;;;;;;;11.70;1.33;;;26.00;50.30;;;;;;4989807;28;20433;-73
2021/07/30 11:37:07;;;;;;;2.85;0.90;;;26.00;50.00;;;;;;4989467;28;20038;-73
2021/07/30 11:39:38;;;;;;;4.80;1.33;;;26.10;50.00;;;;;;5003902;28;20508;-73
2021/07/30 11:42:04;;;;;;;1.88;0.77;;;26.10;50.10;;;;;;4989831;28;20029;-73
2021/07/30 11:44:50;;;;;;;2.58;1.10;;;26.20;49.60;;;;;;4988589;28;20030;-73
2021/07/30 11:47:17;;;;;;;2.87;1.00;;;26.20;49.60;;;;;;5004402;28;20038;-73
2021/07/30 11:49:44;;;;;;;8.35;1.73;;;26.10;49.80;;;;;;4986011;28;20366;-73
2021/07/30 11:52:17;;;;;;;5.95;1.52;;;26.10;49.30;;;;;;5004505;28;20030;-73
2021/07/30 11:54:43;;;;;;;4.80;1.35;;;26.00;49.60;;;;;;4989174;28;20105;-73
2021/07/30 11:57:08;;;;;;;3.33;1.13;;;26.00;49.50;;;;;;4989716;28;20109;-73
2021/07/30 11:59:45;;;;;;;4.70;0.95;;;26.00;50.10;;;;;;5004041;28;20553;-73
2021/07/30 12:02:11;;;;;;;2.67;1.13;;;26.00;49.70;;;;;;5004282;28;20261;-73
2021/07/30 12:04:37;;;;;;;4.65;1.50;;;26.00;49.60;;;;;;4988336;28;20579;-73
2021/07/30 12:07:14;;;;;;;4.72;1.25;;;26.00;50.10;;;;;;4989138;28;20034;-73
2021/07/30 12:09:40;;;;;;;2.17;0.93;;;26.00;50.00;;;;;;4988599;28;20519;-73
2021/07/30 12:12:10;;;;;;;4.88;1.23;;;26.10;49.90;;;;;;4991474;28;20045;-73
2021/07/30 12:14:36;;;;;;;5.03;1.05;;;26.30;49.90;;;;;;4990858;28;20025;-73
2021/07/30 12:17:03;;;;;;;2.15;0.98;;;26.20;49.60;;;;;;4991734;28;20073;-73
2021/07/30 12:19:31;;;;;;;2.53;0.95;;;26.30;50.00;;;;;;4990904;28;20100;-73
2021/07/30 12:22:00;;;;;;;2.83;1.27;;;26.40;49.50;;;;;;4993000;28;20029;-73
2021/07/30 12:24:27;;;;;;;4.00;1.02;;;26.50;49.70;;;;;;4993025;28;20026;-73
2021/07/30 12:26:53;;;;;;;2.85;1.13;;;26.60;50.10;;;;;;4992982;28;20026;-73
2021/07/30 12:29:37;;;;;;;5.72;1.55;;;26.70;49.50;;;;;;4991706;28;20080;-73
2021/07/30 12:32:15;;;;;;;1.85;1.15;;;26.80;49.70;;;;;;4989311;28;20169;-73
2021/07/30 12:34:53;;;;;;;2.63;1.10;;;27.00;49.60;;;;;;4992922;28;20079;-73
2021/07/30 12:37:19;;;;;;;2.58;1.02;;;27.20;48.70;;;;;;4991034;28;20034;-74
2021/07/30 12:39:49;;;;;;;5.88;1.55;;;27.10;49.30;;;;;;4992393;28;20113;-74
2021/07/30 12:42:20;;;;;;;4.20;0.63;;;27.30;49.10;;;;;;4992522;28;20022;-74
2021/07/30 12:45:13;;;;;;;7.07;1.13;;;27.30;48.70;;;;;;4991297;28;20030;-73
2021/07/30 12:47:47;;;;;;;3.15;1.35;;;27.30;48.60;;;;;;4992354;28;20390;-74
2021/07/30 12:50:37;;;;;;;3.75;1.50;;;27.30;48.70;;;;;;4991176;28;20057;-74
2021/07/30 12:53:24;;;;;;;6.25;0.98;;;27.20;49.10;;;;;;4991292;28;20029;-74
2021/07/30 12:56:09;;;;;;;4.57;1.45;;;27.30;49.00;;;;;;4991509;28;20018;-74
2021/07/30 12:58:36;;;;;;;2.47;0.85;;;27.50;48.60;;;;;;5007311;28;20049;-73
2021/07/30 13:01:12;;;;;;;4.30;1.17;;;27.60;47.80;;;;;;4991922;28;20088;-74